sensor_id;sensor_type;location;lat;lon;timestamp;P1;durP1;ratioP1;P2;durP2;ratioP2
21128;SDS011;10722;51.910;8.352;2022-10-16T00:01:11;16.23;;;6.03;;
21128;SDS011;10722;51.910;8.352;2022-10-16T00:03:58;15.80;;;6.03;;
21128;SDS011;10722;51.910;8.352;2022-10-16T00:06:46;15.65;;;6.50;;
21128;SDS011;10722;51.910;8.352;2022-10-16T00:09:31;14.77;;;6.57;;
21128;SDS011;10722;51.910;8.352;2022-10-16T00:12:16;13.27;;;6.25;;
21128;SDS011;10722;51.910;8.352;2022-10-16T00:15:01;15.05;;;5.72;;
21128;SDS011;10722;51.910;8.352;2022-10-16T00:17:47;15.32;;;6.10;;
21128;SDS011;10722;51.910;8.352;2022-10-16T00:20:35;16.35;;;6.07;;
21128;SDS011;10722;51.910;8.352;2022-10-16T00:23:21;14.95;;;5.85;;
21128;SDS011;10722;51.910;8.352;2022-10-16T00:26:08;16.42;;;5.50;;
21128;SDS011;10722;51.910;8.352;2022-10-16T00:28:55;17.02;;;5.85;;
21128;SDS011;10722;51.910;8.352;2022-10-16T00:31:41;18.38;;;5.97;;
21128;SDS011;10722;51.910;8.352;2022-10-16T00:34:26;16.55;;;6.05;;
21128;SDS011;10722;51.910;8.352;2022-10-16T00:37:11;14.57;;;6.10;;
21128;SDS011;10722;51.910;8.352;2022-10-16T00:39:56;16.35;;;6.57;;
21128;SDS011;10722;51.910;8.352;2022-10-16T00:42:41;16.13;;;6.20;;
21128;SDS011;10722;51.910;8.352;2022-10-16T00:45:26;16.02;;;6.60;;
21128;SDS011;10722;51.910;8.352;2022-10-16T00:48:12;15.88;;;6.72;;
21128;SDS011;10722;51.910;8.352;2022-10-16T00:50:57;17.08;;;6.88;;
21128;SDS011;10722;51.910;8.352;2022-10-16T00:53:43;18.17;;;7.07;;
21128;SDS011;10722;51.910;8.352;2022-10-16T00:56:29;14.70;;;7.25;;
21128;SDS011;10722;51.910;8.352;2022-10-16T01:02:06;16.88;;;7.32;;
21128;SDS011;10722;51.910;8.352;2022-10-16T01:04:53;20.05;;;7.70;;
21128;SDS011;10722;51.910;8.352;2022-10-16T01:07:48;15.52;;;7.28;;
21128;SDS011;10722;51.910;8.352;2022-10-16T01:10:38;18.83;;;7.25;;
21128;SDS011;10722;51.910;8.352;2022-10-16T01:13:32;16.02;;;7.00;;
21128;SDS011;10722;51.910;8.352;2022-10-16T01:22:10;15.45;;;7.38;;
21128;SDS011;10722;51.910;8.352;2022-10-16T01:24:55;16.08;;;6.95;;
21128;SDS011;10722;51.910;8.352;2022-10-16T01:27:46;16.88;;;7.35;;
21128;SDS011;10722;51.910;8.352;2022-10-16T01:30:33;18.85;;;7.45;;
21128;SDS011;10722;51.910;8.352;2022-10-16T01:33:21;17.23;;;7.45;;
21128;SDS011;10722;51.910;8.352;2022-10-16T01:36:13;16.17;;;7.25;;
21128;SDS011;10722;51.910;8.352;2022-10-16T01:39:02;17.05;;;7.25;;
21128;SDS011;10722;51.910;8.352;2022-10-16T01:41:55;16.55;;;7.10;;
21128;SDS011;10722;51.910;8.352;2022-10-16T01:44:45;15.70;;;6.80;;
21128;SDS011;10722;51.910;8.352;2022-10-16T01:47:33;14.35;;;6.75;;
21128;SDS011;10722;51.910;8.352;2022-10-16T01:50:21;16.55;;;6.55;;
21128;SDS011;10722;51.910;8.352;2022-10-16T01:53:08;18.00;;;6.35;;
21128;SDS011;10722;51.910;8.352;2022-10-16T01:55:56;14.38;;;6.05;;
21128;SDS011;10722;51.910;8.352;2022-10-16T01:58:52;16.85;;;7.00;;
21128;SDS011;10722;51.910;8.352;2022-10-16T02:01:40;17.15;;;6.22;;
21128;SDS011;10722;51.910;8.352;2022-10-16T02:04:40;17.08;;;6.78;;
21128;SDS011;10722;51.910;8.352;2022-10-16T02:07:29;17.25;;;6.78;;
21128;SDS011;10722;51.910;8.352;2022-10-16T02:10:15;17.15;;;7.18;;
21128;SDS011;10722;51.910;8.352;2022-10-16T02:13:03;20.88;;;8.60;;
21128;SDS011;10722;51.910;8.352;2022-10-16T02:16:10;16.23;;;7.80;;
21128;SDS011;10722;51.910;8.352;2022-10-16T02:18:56;17.60;;;7.47;;
21128;SDS011;10722;51.910;8.352;2022-10-16T02:21:55;17.50;;;7.53;;
21128;SDS011;10722;51.910;8.352;2022-10-16T02:24:47;18.10;;;7.88;;
21128;SDS011;10722;51.910;8.352;2022-10-16T02:27:54;17.80;;;7.90;;
21128;SDS011;10722;51.910;8.352;2022-10-16T02:30:52;18.75;;;8.23;;
21128;SDS011;10722;51.910;8.352;2022-10-16T02:33:43;15.18;;;7.35;;
21128;SDS011;10722;51.910;8.352;2022-10-16T02:36:31;18.23;;;7.93;;
21128;SDS011;10722;51.910;8.352;2022-10-16T02:39:18;17.65;;;6.90;;
21128;SDS011;10722;51.910;8.352;2022-10-16T02:42:09;15.77;;;6.40;;
21128;SDS011;10722;51.910;8.352;2022-10-16T02:44:55;15.80;;;6.43;;
21128;SDS011;10722;51.910;8.352;2022-10-16T02:47:40;15.95;;;6.50;;
21128;SDS011;10722;51.910;8.352;2022-10-16T02:50:25;16.17;;;6.85;;
21128;SDS011;10722;51.910;8.352;2022-10-16T02:53:09;15.27;;;6.40;;
21128;SDS011;10722;51.910;8.352;2022-10-16T02:55:54;15.23;;;6.68;;
21128;SDS011;10722;51.910;8.352;2022-10-16T02:58:39;18.63;;;7.25;;
21128;SDS011;10722;51.910;8.352;2022-10-16T03:01:24;16.45;;;7.20;;
21128;SDS011;10722;51.910;8.352;2022-10-16T03:04:10;17.67;;;6.97;;
21128;SDS011;10722;51.910;8.352;2022-10-16T03:06:54;15.18;;;6.57;;
21128;SDS011;10722;51.910;8.352;2022-10-16T03:09:41;14.45;;;6.45;;
21128;SDS011;10722;51.910;8.352;2022-10-16T03:12:27;15.30;;;6.25;;
21128;SDS011;10722;51.910;8.352;2022-10-16T03:15:13;15.35;;;6.25;;
21128;SDS011;10722;51.910;8.352;2022-10-16T03:17:58;14.77;;;6.47;;
21128;SDS011;10722;51.910;8.352;2022-10-16T03:20:44;18.50;;;6.35;;
21128;SDS011;10722;51.910;8.352;2022-10-16T03:23:29;16.05;;;6.30;;
21128;SDS011;10722;51.910;8.352;2022-10-16T03:26:14;15.15;;;6.57;;
21128;SDS011;10722;51.910;8.352;2022-10-16T03:28:59;14.48;;;6.18;;
21128;SDS011;10722;51.910;8.352;2022-10-16T03:31:44;15.43;;;6.28;;
21128;SDS011;10722;51.910;8.352;2022-10-16T03:34:29;13.75;;;6.05;;
21128;SDS011;10722;51.910;8.352;2022-10-16T03:37:14;15.07;;;6.30;;
21128;SDS011;10722;51.910;8.352;2022-10-16T03:40:00;14.45;;;5.90;;
21128;SDS011;10722;51.910;8.352;2022-10-16T03:42:45;16.10;;;5.65;;
21128;SDS011;10722;51.910;8.352;2022-10-16T03:45:30;15.95;;;6.10;;
21128;SDS011;10722;51.910;8.352;2022-10-16T03:48:15;13.27;;;5.40;;
21128;SDS011;10722;51.910;8.352;2022-10-16T03:51:00;13.07;;;5.40;;
21128;SDS011;10722;51.910;8.352;2022-10-16T03:53:45;14.32;;;5.38;;
21128;SDS011;10722;51.910;8.352;2022-10-16T03:56:30;13.73;;;5.15;;
21128;SDS011;10722;51.910;8.352;2022-10-16T03:59:15;13.68;;;4.72;;
21128;SDS011;10722;51.910;8.352;2022-10-16T04:02:00;15.07;;;4.95;;
21128;SDS011;10722;51.910;8.352;2022-10-16T04:04:45;11.77;;;4.97;;
21128;SDS011;10722;51.910;8.352;2022-10-16T04:07:30;10.35;;;4.30;;
21128;SDS011;10722;51.910;8.352;2022-10-16T04:10:15;11.57;;;4.40;;
21128;SDS011;10722;51.910;8.352;2022-10-16T04:13:00;11.27;;;4.82;;
21128;SDS011;10722;51.910;8.352;2022-10-16T04:15:45;12.43;;;4.53;;
21128;SDS011;10722;51.910;8.352;2022-10-16T04:18:30;11.23;;;4.15;;
21128;SDS011;10722;51.910;8.352;2022-10-16T04:21:15;12.32;;;4.25;;
21128;SDS011;10722;51.910;8.352;2022-10-16T04:24:00;10.40;;;4.25;;
21128;SDS011;10722;51.910;8.352;2022-10-16T04:26:45;14.32;;;4.20;;
21128;SDS011;10722;51.910;8.352;2022-10-16T04:29:31;12.60;;;4.22;;
21128;SDS011;10722;51.910;8.352;2022-10-16T04:32:16;12.18;;;3.97;;
21128;SDS011;10722;51.910;8.352;2022-10-16T04:35:00;9.48;;;3.72;;
21128;SDS011;10722;51.910;8.352;2022-10-16T04:37:46;11.00;;;3.92;;
21128;SDS011;10722;51.910;8.352;2022-10-16T04:40:31;8.55;;;3.47;;
21128;SDS011;10722;51.910;8.352;2022-10-16T04:43:17;9.60;;;3.55;;
21128;SDS011;10722;51.910;8.352;2022-10-16T04:46:02;11.77;;;3.90;;
21128;SDS011;10722;51.910;8.352;2022-10-16T04:48:47;12.95;;;4.07;;
21128;SDS011;10722;51.910;8.352;2022-10-16T04:51:33;9.63;;;3.65;;
21128;SDS011;10722;51.910;8.352;2022-10-16T04:54:18;9.80;;;3.78;;
21128;SDS011;10722;51.910;8.352;2022-10-16T04:57:02;11.82;;;3.70;;
21128;SDS011;10722;51.910;8.352;2022-10-16T04:59:48;15.25;;;3.60;;
21128;SDS011;10722;51.910;8.352;2022-10-16T05:02:33;10.70;;;3.60;;
21128;SDS011;10722;51.910;8.352;2022-10-16T05:05:19;9.43;;;3.30;;
21128;SDS011;10722;51.910;8.352;2022-10-16T05:08:04;11.90;;;3.67;;
21128;SDS011;10722;51.910;8.352;2022-10-16T05:10:48;8.65;;;3.63;;
21128;SDS011;10722;51.910;8.352;2022-10-16T05:13:34;11.30;;;3.53;;
21128;SDS011;10722;51.910;8.352;2022-10-16T05:16:19;8.20;;;3.40;;
21128;SDS011;10722;51.910;8.352;2022-10-16T05:19:04;11.13;;;3.55;;
21128;SDS011;10722;51.910;8.352;2022-10-16T05:22:10;10.57;;;3.63;;
21128;SDS011;10722;51.910;8.352;2022-10-16T05:24:55;11.23;;;3.70;;
21128;SDS011;10722;51.910;8.352;2022-10-16T05:27:40;11.30;;;4.00;;
21128;SDS011;10722;51.910;8.352;2022-10-16T05:30:25;10.45;;;3.67;;
21128;SDS011;10722;51.910;8.352;2022-10-16T05:33:10;11.68;;;4.22;;
21128;SDS011;10722;51.910;8.352;2022-10-16T05:35:54;9.48;;;4.05;;
21128;SDS011;10722;51.910;8.352;2022-10-16T05:38:39;11.13;;;4.18;;
21128;SDS011;10722;51.910;8.352;2022-10-16T05:41:24;9.25;;;3.83;;
21128;SDS011;10722;51.910;8.352;2022-10-16T05:44:09;12.05;;;4.05;;
21128;SDS011;10722;51.910;8.352;2022-10-16T05:46:54;12.40;;;4.20;;
21128;SDS011;10722;51.910;8.352;2022-10-16T05:49:39;12.10;;;4.38;;
21128;SDS011;10722;51.910;8.352;2022-10-16T05:52:26;11.38;;;4.68;;
21128;SDS011;10722;51.910;8.352;2022-10-16T05:55:11;12.02;;;4.88;;
21128;SDS011;10722;51.910;8.352;2022-10-16T05:57:56;13.57;;;4.57;;
21128;SDS011;10722;51.910;8.352;2022-10-16T06:00:42;10.88;;;4.22;;
21128;SDS011;10722;51.910;8.352;2022-10-16T06:03:27;8.77;;;3.85;;
21128;SDS011;10722;51.910;8.352;2022-10-16T06:06:13;11.40;;;4.60;;
21128;SDS011;10722;51.910;8.352;2022-10-16T06:09:00;12.15;;;5.10;;
21128;SDS011;10722;51.910;8.352;2022-10-16T06:11:45;11.75;;;4.30;;
21128;SDS011;10722;51.910;8.352;2022-10-16T06:14:30;15.68;;;5.25;;
21128;SDS011;10722;51.910;8.352;2022-10-16T06:17:16;13.65;;;5.88;;
21128;SDS011;10722;51.910;8.352;2022-10-16T06:20:01;13.50;;;5.35;;
21128;SDS011;10722;51.910;8.352;2022-10-16T06:22:47;14.70;;;5.25;;
21128;SDS011;10722;51.910;8.352;2022-10-16T06:25:32;10.38;;;4.40;;
21128;SDS011;10722;51.910;8.352;2022-10-16T06:28:17;11.70;;;4.68;;
21128;SDS011;10722;51.910;8.352;2022-10-16T06:31:03;13.88;;;4.80;;
21128;SDS011;10722;51.910;8.352;2022-10-16T06:33:54;9.57;;;4.13;;
21128;SDS011;10722;51.910;8.352;2022-10-16T06:36:40;10.13;;;3.40;;
21128;SDS011;10722;51.910;8.352;2022-10-16T06:39:25;8.50;;;3.08;;
21128;SDS011;10722;51.910;8.352;2022-10-16T06:42:10;11.15;;;3.97;;
21128;SDS011;10722;51.910;8.352;2022-10-16T06:44:55;8.00;;;2.97;;
21128;SDS011;10722;51.910;8.352;2022-10-16T06:47:40;8.27;;;2.88;;
21128;SDS011;10722;51.910;8.352;2022-10-16T06:50:26;9.73;;;2.80;;
21128;SDS011;10722;51.910;8.352;2022-10-16T06:53:11;11.40;;;3.10;;
21128;SDS011;10722;51.910;8.352;2022-10-16T06:55:56;10.65;;;2.83;;
21128;SDS011;10722;51.910;8.352;2022-10-16T06:58:44;9.45;;;2.50;;
21128;SDS011;10722;51.910;8.352;2022-10-16T07:01:30;9.73;;;2.70;;
21128;SDS011;10722;51.910;8.352;2022-10-16T07:04:17;7.18;;;2.55;;
21128;SDS011;10722;51.910;8.352;2022-10-16T07:07:02;6.28;;;2.40;;
21128;SDS011;10722;51.910;8.352;2022-10-16T07:09:53;9.18;;;2.75;;
21128;SDS011;10722;51.910;8.352;2022-10-16T07:12:38;10.32;;;2.45;;
21128;SDS011;10722;51.910;8.352;2022-10-16T07:15:24;12.13;;;2.47;;
21128;SDS011;10722;51.910;8.352;2022-10-16T07:18:10;6.80;;;2.40;;
21128;SDS011;10722;51.910;8.352;2022-10-16T07:21:02;6.50;;;2.35;;
21128;SDS011;10722;51.910;8.352;2022-10-16T07:23:52;7.78;;;2.42;;
21128;SDS011;10722;51.910;8.352;2022-10-16T07:26:38;6.97;;;2.28;;
21128;SDS011;10722;51.910;8.352;2022-10-16T07:29:23;6.32;;;2.28;;
21128;SDS011;10722;51.910;8.352;2022-10-16T07:32:08;6.22;;;2.20;;
21128;SDS011;10722;51.910;8.352;2022-10-16T07:34:54;5.72;;;2.20;;
21128;SDS011;10722;51.910;8.352;2022-10-16T07:37:38;7.30;;;2.35;;
21128;SDS011;10722;51.910;8.352;2022-10-16T07:40:23;7.68;;;2.20;;
21128;SDS011;10722;51.910;8.352;2022-10-16T07:43:08;5.78;;;2.13;;
21128;SDS011;10722;51.910;8.352;2022-10-16T07:45:54;11.48;;;2.58;;
21128;SDS011;10722;51.910;8.352;2022-10-16T07:48:43;6.90;;;2.40;;
21128;SDS011;10722;51.910;8.352;2022-10-16T07:51:29;5.75;;;2.33;;
21128;SDS011;10722;51.910;8.352;2022-10-16T07:54:14;6.15;;;2.20;;
21128;SDS011;10722;51.910;8.352;2022-10-16T07:56:59;7.15;;;2.10;;
21128;SDS011;10722;51.910;8.352;2022-10-16T07:59:47;4.25;;;2.03;;
21128;SDS011;10722;51.910;8.352;2022-10-16T08:02:32;8.98;;;2.40;;
21128;SDS011;10722;51.910;8.352;2022-10-16T08:05:17;6.43;;;2.40;;
21128;SDS011;10722;51.910;8.352;2022-10-16T08:08:02;7.30;;;2.00;;
21128;SDS011;10722;51.910;8.352;2022-10-16T08:10:47;6.03;;;2.00;;
21128;SDS011;10722;51.910;8.352;2022-10-16T08:13:35;6.22;;;2.00;;
21128;SDS011;10722;51.910;8.352;2022-10-16T08:16:20;7.50;;;2.08;;
21128;SDS011;10722;51.910;8.352;2022-10-16T08:19:05;7.57;;;1.98;;
21128;SDS011;10722;51.910;8.352;2022-10-16T08:21:52;5.95;;;1.90;;
21128;SDS011;10722;51.910;8.352;2022-10-16T08:24:37;5.65;;;1.70;;
21128;SDS011;10722;51.910;8.352;2022-10-16T08:27:23;6.72;;;1.98;;
21128;SDS011;10722;51.910;8.352;2022-10-16T08:30:09;7.55;;;2.72;;
21128;SDS011;10722;51.910;8.352;2022-10-16T08:32:55;6.88;;;2.00;;
21128;SDS011;10722;51.910;8.352;2022-10-16T08:35:39;9.00;;;1.90;;
21128;SDS011;10722;51.910;8.352;2022-10-16T08:38:25;7.25;;;1.80;;
21128;SDS011;10722;51.910;8.352;2022-10-16T08:47:10;4.63;;;1.80;;
21128;SDS011;10722;51.910;8.352;2022-10-16T08:50:08;6.78;;;1.85;;
21128;SDS011;10722;51.910;8.352;2022-10-16T08:52:55;5.78;;;1.80;;
21128;SDS011;10722;51.910;8.352;2022-10-16T08:55:46;4.88;;;1.70;;
21128;SDS011;10722;51.910;8.352;2022-10-16T08:58:34;9.07;;;1.95;;
21128;SDS011;10722;51.910;8.352;2022-10-16T09:01:20;4.28;;;1.65;;
21128;SDS011;10722;51.910;8.352;2022-10-16T09:04:20;7.53;;;1.73;;
21128;SDS011;10722;51.910;8.352;2022-10-16T09:10:24;5.72;;;1.75;;
21128;SDS011;10722;51.910;8.352;2022-10-16T09:13:29;8.55;;;1.95;;
21128;SDS011;10722;51.910;8.352;2022-10-16T09:16:35;7.70;;;1.60;;
21128;SDS011;10722;51.910;8.352;2022-10-16T09:19:25;5.53;;;1.60;;
21128;SDS011;10722;51.910;8.352;2022-10-16T09:22:16;7.97;;;1.80;;
21128;SDS011;10722;51.910;8.352;2022-10-16T09:25:10;7.25;;;1.75;;
21128;SDS011;10722;51.910;8.352;2022-10-16T09:27:57;7.95;;;1.77;;
21128;SDS011;10722;51.910;8.352;2022-10-16T09:30:42;6.45;;;1.52;;
21128;SDS011;10722;51.910;8.352;2022-10-16T09:33:29;6.55;;;1.58;;
21128;SDS011;10722;51.910;8.352;2022-10-16T09:36:20;6.65;;;1.60;;
21128;SDS011;10722;51.910;8.352;2022-10-16T09:39:06;7.07;;;1.70;;
21128;SDS011;10722;51.910;8.352;2022-10-16T09:41:53;7.82;;;1.52;;
21128;SDS011;10722;51.910;8.352;2022-10-16T09:44:41;7.55;;;1.48;;
21128;SDS011;10722;51.910;8.352;2022-10-16T09:47:27;7.07;;;1.60;;
21128;SDS011;10722;51.910;8.352;2022-10-16T09:50:27;7.07;;;1.70;;
21128;SDS011;10722;51.910;8.352;2022-10-16T09:53:14;5.18;;;1.45;;
21128;SDS011;10722;51.910;8.352;2022-10-16T09:55:59;6.90;;;1.40;;
21128;SDS011;10722;51.910;8.352;2022-10-16T09:58:49;6.43;;;1.30;;
21128;SDS011;10722;51.910;8.352;2022-10-16T10:01:36;6.25;;;1.60;;
21128;SDS011;10722;51.910;8.352;2022-10-16T10:04:24;5.22;;;1.67;;
21128;SDS011;10722;51.910;8.352;2022-10-16T10:07:20;7.05;;;1.23;;
21128;SDS011;10722;51.910;8.352;2022-10-16T10:10:23;4.32;;;1.45;;
21128;SDS011;10722;51.910;8.352;2022-10-16T10:13:20;5.85;;;1.33;;
21128;SDS011;10722;51.910;8.352;2022-10-16T10:16:07;6.65;;;1.42;;
21128;SDS011;10722;51.910;8.352;2022-10-16T10:18:58;6.32;;;1.05;;
21128;SDS011;10722;51.910;8.352;2022-10-16T10:21:45;5.65;;;1.15;;
21128;SDS011;10722;51.910;8.352;2022-10-16T10:24:30;8.13;;;1.60;;
21128;SDS011;10722;51.910;8.352;2022-10-16T10:27:16;4.88;;;1.10;;
21128;SDS011;10722;51.910;8.352;2022-10-16T10:38:47;6.03;;;1.20;;
21128;SDS011;10722;51.910;8.352;2022-10-16T10:54:27;5.82;;;1.33;;
21128;SDS011;10722;51.910;8.352;2022-10-16T11:00:35;6.60;;;1.40;;
21128;SDS011;10722;51.910;8.352;2022-10-16T11:09:30;6.60;;;1.38;;
21128;SDS011;10722;51.910;8.352;2022-10-16T11:12:23;7.90;;;1.50;;
21128;SDS011;10722;51.910;8.352;2022-10-16T11:15:14;7.60;;;1.40;;
21128;SDS011;10722;51.910;8.352;2022-10-16T11:21:07;7.53;;;1.52;;
21128;SDS011;10722;51.910;8.352;2022-10-16T11:26:41;4.85;;;1.00;;
21128;SDS011;10722;51.910;8.352;2022-10-16T11:29:29;8.30;;;1.17;;
21128;SDS011;10722;51.910;8.352;2022-10-16T11:32:19;6.47;;;1.33;;
21128;SDS011;10722;51.910;8.352;2022-10-16T11:35:11;4.90;;;1.00;;
21128;SDS011;10722;51.910;8.352;2022-10-16T11:38:08;3.72;;;1.13;;
21128;SDS011;10722;51.910;8.352;2022-10-16T11:47:45;6.50;;;1.42;;
21128;SDS011;10722;51.910;8.352;2022-10-16T11:53:44;4.03;;;1.17;;
21128;SDS011;10722;51.910;8.352;2022-10-16T11:56:36;15.57;;;7.68;;
21128;SDS011;10722;51.910;8.352;2022-10-16T11:59:31;4.70;;;1.05;;
21128;SDS011;10722;51.910;8.352;2022-10-16T12:08:51;5.45;;;1.13;;
21128;SDS011;10722;51.910;8.352;2022-10-16T12:11:38;6.80;;;1.30;;
21128;SDS011;10722;51.910;8.352;2022-10-16T12:17:34;4.80;;;1.30;;
21128;SDS011;10722;51.910;8.352;2022-10-16T12:20:28;4.95;;;1.30;;
21128;SDS011;10722;51.910;8.352;2022-10-16T12:23:19;8.73;;;1.58;;
21128;SDS011;10722;51.910;8.352;2022-10-16T12:26:05;5.28;;;1.13;;
21128;SDS011;10722;51.910;8.352;2022-10-16T12:28:51;5.65;;;1.35;;
21128;SDS011;10722;51.910;8.352;2022-10-16T12:31:37;9.48;;;1.70;;
21128;SDS011;10722;51.910;8.352;2022-10-16T12:34:42;6.65;;;1.27;;
21128;SDS011;10722;51.910;8.352;2022-10-16T12:37:31;7.95;;;1.50;;
21128;SDS011;10722;51.910;8.352;2022-10-16T12:40:27;6.20;;;1.35;;
21128;SDS011;10722;51.910;8.352;2022-10-16T12:51:58;5.20;;;1.20;;
21128;SDS011;10722;51.910;8.352;2022-10-16T12:54:43;5.45;;;1.38;;
21128;SDS011;10722;51.910;8.352;2022-10-16T12:57:32;5.70;;;1.30;;
21128;SDS011;10722;51.910;8.352;2022-10-16T13:00:44;6.57;;;1.17;;
21128;SDS011;10722;51.910;8.352;2022-10-16T13:10:14;5.50;;;1.20;;
21128;SDS011;10722;51.910;8.352;2022-10-16T13:22:13;5.03;;;1.50;;
21128;SDS011;10722;51.910;8.352;2022-10-16T13:25:21;4.45;;;1.20;;
21128;SDS011;10722;51.910;8.352;2022-10-16T13:28:27;5.32;;;1.25;;
21128;SDS011;10722;51.910;8.352;2022-10-16T13:31:18;6.03;;;1.33;;
21128;SDS011;10722;51.910;8.352;2022-10-16T13:34:06;6.13;;;1.40;;
21128;SDS011;10722;51.910;8.352;2022-10-16T13:36:59;6.07;;;1.42;;
21128;SDS011;10722;51.910;8.352;2022-10-16T13:39:44;9.32;;;1.45;;
21128;SDS011;10722;51.910;8.352;2022-10-16T13:42:29;4.00;;;1.10;;
21128;SDS011;10722;51.910;8.352;2022-10-16T13:45:19;4.97;;;1.40;;
21128;SDS011;10722;51.910;8.352;2022-10-16T13:48:08;6.80;;;1.50;;
21128;SDS011;10722;51.910;8.352;2022-10-16T13:54:16;4.10;;;1.35;;
21128;SDS011;10722;51.910;8.352;2022-10-16T13:57:04;8.20;;;1.30;;
21128;SDS011;10722;51.910;8.352;2022-10-16T14:03:10;4.25;;;1.33;;
21128;SDS011;10722;51.910;8.352;2022-10-16T14:06:00;6.65;;;1.20;;
21128;SDS011;10722;51.910;8.352;2022-10-16T14:08:53;7.47;;;1.52;;
21128;SDS011;10722;51.910;8.352;2022-10-16T14:11:45;6.53;;;1.30;;
21128;SDS011;10722;51.910;8.352;2022-10-16T14:14:41;4.75;;;1.33;;
21128;SDS011;10722;51.910;8.352;2022-10-16T14:17:31;4.60;;;1.50;;
21128;SDS011;10722;51.910;8.352;2022-10-16T14:20:20;3.85;;;1.35;;
21128;SDS011;10722;51.910;8.352;2022-10-16T14:26:28;8.13;;;1.45;;
21128;SDS011;10722;51.910;8.352;2022-10-16T14:29:14;4.32;;;1.27;;
21128;SDS011;10722;51.910;8.352;2022-10-16T14:32:03;4.35;;;1.23;;
21128;SDS011;10722;51.910;8.352;2022-10-16T14:35:29;6.90;;;1.20;;
21128;SDS011;10722;51.910;8.352;2022-10-16T14:38:18;5.82;;;1.20;;
21128;SDS011;10722;51.910;8.352;2022-10-16T14:41:05;6.57;;;1.00;;
21128;SDS011;10722;51.910;8.352;2022-10-16T14:43:54;5.28;;;1.20;;
21128;SDS011;10722;51.910;8.352;2022-10-16T14:46:42;2.25;;;0.90;;
21128;SDS011;10722;51.910;8.352;2022-10-16T14:49:28;7.15;;;1.80;;
21128;SDS011;10722;51.910;8.352;2022-10-16T14:52:14;5.10;;;1.40;;
21128;SDS011;10722;51.910;8.352;2022-10-16T14:54:59;7.60;;;1.30;;
21128;SDS011;10722;51.910;8.352;2022-10-16T14:57:44;5.03;;;1.35;;
21128;SDS011;10722;51.910;8.352;2022-10-16T15:00:30;8.80;;;1.40;;
21128;SDS011;10722;51.910;8.352;2022-10-16T15:03:16;5.53;;;1.60;;
21128;SDS011;10722;51.910;8.352;2022-10-16T15:06:01;5.78;;;1.40;;
21128;SDS011;10722;51.910;8.352;2022-10-16T15:08:46;5.13;;;1.30;;
21128;SDS011;10722;51.910;8.352;2022-10-16T15:11:32;7.57;;;1.50;;
21128;SDS011;10722;51.910;8.352;2022-10-16T15:14:17;5.35;;;1.40;;
21128;SDS011;10722;51.910;8.352;2022-10-16T15:17:02;6.85;;;1.13;;
21128;SDS011;10722;51.910;8.352;2022-10-16T15:19:48;6.30;;;1.60;;
21128;SDS011;10722;51.910;8.352;2022-10-16T15:22:33;3.78;;;1.20;;
21128;SDS011;10722;51.910;8.352;2022-10-16T15:28:29;51.83;;;35.95;;
21128;SDS011;10722;51.910;8.352;2022-10-16T15:31:18;6.57;;;1.27;;
21128;SDS011;10722;51.910;8.352;2022-10-16T15:34:04;8.00;;;1.60;;
21128;SDS011;10722;51.910;8.352;2022-10-16T15:36:49;6.47;;;1.40;;
21128;SDS011;10722;51.910;8.352;2022-10-16T15:39:35;10.23;;;2.35;;
21128;SDS011;10722;51.910;8.352;2022-10-16T15:42:25;14.30;;;2.50;;
21128;SDS011;10722;51.910;8.352;2022-10-16T15:45:11;6.25;;;1.58;;
21128;SDS011;10722;51.910;8.352;2022-10-16T15:47:57;5.05;;;1.67;;
21128;SDS011;10722;51.910;8.352;2022-10-16T15:50:43;6.60;;;1.73;;
21128;SDS011;10722;51.910;8.352;2022-10-16T15:53:27;8.15;;;1.73;;
21128;SDS011;10722;51.910;8.352;2022-10-16T15:56:13;13.50;;;2.05;;
21128;SDS011;10722;51.910;8.352;2022-10-16T15:58:59;6.53;;;1.67;;
21128;SDS011;10722;51.910;8.352;2022-10-16T16:01:45;8.68;;;1.90;;
21128;SDS011;10722;51.910;8.352;2022-10-16T16:04:30;7.35;;;2.22;;
21128;SDS011;10722;51.910;8.352;2022-10-16T16:07:28;7.60;;;2.20;;
21128;SDS011;10722;51.910;8.352;2022-10-16T16:10:14;9.45;;;1.95;;
21128;SDS011;10722;51.910;8.352;2022-10-16T16:12:59;7.63;;;2.10;;
21128;SDS011;10722;51.910;8.352;2022-10-16T16:15:45;11.27;;;4.28;;
21128;SDS011;10722;51.910;8.352;2022-10-16T16:18:30;8.70;;;3.13;;
21128;SDS011;10722;51.910;8.352;2022-10-16T16:21:15;15.02;;;3.90;;
21128;SDS011;10722;51.910;8.352;2022-10-16T16:24:00;14.52;;;4.45;;
21128;SDS011;10722;51.910;8.352;2022-10-16T16:26:46;9.80;;;3.40;;
21128;SDS011;10722;51.910;8.352;2022-10-16T16:29:31;10.15;;;3.50;;
21128;SDS011;10722;51.910;8.352;2022-10-16T16:32:16;10.20;;;2.70;;
21128;SDS011;10722;51.910;8.352;2022-10-16T16:35:02;10.30;;;2.30;;
21128;SDS011;10722;51.910;8.352;2022-10-16T16:37:48;19.85;;;2.47;;
21128;SDS011;10722;51.910;8.352;2022-10-16T16:40:33;12.38;;;2.65;;
21128;SDS011;10722;51.910;8.352;2022-10-16T16:43:18;7.82;;;2.30;;
21128;SDS011;10722;51.910;8.352;2022-10-16T16:46:07;8.48;;;2.10;;
21128;SDS011;10722;51.910;8.352;2022-10-16T16:48:52;10.68;;;2.40;;
21128;SDS011;10722;51.910;8.352;2022-10-16T16:51:38;12.07;;;3.83;;
21128;SDS011;10722;51.910;8.352;2022-10-16T16:54:24;9.65;;;2.47;;
21128;SDS011;10722;51.910;8.352;2022-10-16T16:57:10;10.23;;;2.50;;
21128;SDS011;10722;51.910;8.352;2022-10-16T16:59:55;10.52;;;2.55;;
21128;SDS011;10722;51.910;8.352;2022-10-16T17:02:40;14.02;;;3.72;;
21128;SDS011;10722;51.910;8.352;2022-10-16T17:05:26;16.98;;;4.43;;
21128;SDS011;10722;51.910;8.352;2022-10-16T17:08:11;11.60;;;4.07;;
21128;SDS011;10722;51.910;8.352;2022-10-16T17:10:56;9.82;;;3.00;;
21128;SDS011;10722;51.910;8.352;2022-10-16T17:13:42;10.38;;;3.13;;
21128;SDS011;10722;51.910;8.352;2022-10-16T17:16:32;10.63;;;3.60;;
21128;SDS011;10722;51.910;8.352;2022-10-16T17:19:19;12.55;;;3.72;;
21128;SDS011;10722;51.910;8.352;2022-10-16T17:22:04;13.50;;;4.30;;
21128;SDS011;10722;51.910;8.352;2022-10-16T17:24:50;13.25;;;4.05;;
21128;SDS011;10722;51.910;8.352;2022-10-16T17:27:35;12.38;;;3.83;;
21128;SDS011;10722;51.910;8.352;2022-10-16T17:30:22;12.25;;;3.90;;
21128;SDS011;10722;51.910;8.352;2022-10-16T17:33:09;15.70;;;4.65;;
21128;SDS011;10722;51.910;8.352;2022-10-16T17:35:55;12.68;;;4.72;;
21128;SDS011;10722;51.910;8.352;2022-10-16T17:38:43;14.13;;;5.20;;
21128;SDS011;10722;51.910;8.352;2022-10-16T17:41:31;13.02;;;4.70;;
21128;SDS011;10722;51.910;8.352;2022-10-16T17:44:17;12.32;;;4.38;;
21128;SDS011;10722;51.910;8.352;2022-10-16T17:47:02;15.27;;;4.60;;
21128;SDS011;10722;51.910;8.352;2022-10-16T17:49:47;15.35;;;5.20;;
21128;SDS011;10722;51.910;8.352;2022-10-16T17:52:32;16.52;;;4.88;;
21128;SDS011;10722;51.910;8.352;2022-10-16T17:55:21;12.48;;;4.45;;
21128;SDS011;10722;51.910;8.352;2022-10-16T17:58:11;14.38;;;4.68;;
21128;SDS011;10722;51.910;8.352;2022-10-16T18:00:56;14.30;;;5.18;;
21128;SDS011;10722;51.910;8.352;2022-10-16T18:03:41;15.82;;;5.63;;
21128;SDS011;10722;51.910;8.352;2022-10-16T18:06:27;14.98;;;5.10;;
21128;SDS011;10722;51.910;8.352;2022-10-16T18:09:13;14.32;;;5.22;;
21128;SDS011;10722;51.910;8.352;2022-10-16T18:12:00;13.00;;;4.32;;
21128;SDS011;10722;51.910;8.352;2022-10-16T18:14:45;14.70;;;4.93;;
21128;SDS011;10722;51.910;8.352;2022-10-16T18:17:30;14.38;;;5.00;;
21128;SDS011;10722;51.910;8.352;2022-10-16T18:20:16;24.20;;;15.15;;
21128;SDS011;10722;51.910;8.352;2022-10-16T18:23:01;17.02;;;9.80;;
21128;SDS011;10722;51.910;8.352;2022-10-16T18:25:50;20.45;;;8.55;;
21128;SDS011;10722;51.910;8.352;2022-10-16T18:28:35;17.83;;;7.30;;
21128;SDS011;10722;51.910;8.352;2022-10-16T18:31:21;17.90;;;6.70;;
21128;SDS011;10722;51.910;8.352;2022-10-16T18:34:07;17.10;;;7.20;;